Time;durP1;ratioP1;P1;durP2;ratioP2;P2;SDS_P1;SDS_P2;PMS_P1;PMS_P2;Temp;Humidity;BMP_temperature;BMP_pressure;BME280_temperature;BME280_humidity;BME280_pressure;Samples;Min_cycle;Max_cycle;Signal;HPM_P1;HPM_P2
2023/12/31 00:01:02;;;;;;;8.23;2.05;;;22.30;99.90;;;;;;5120515;27;20636;-78
2023/12/31 00:03:33;;;;;;;9.05;2.42;;;22.30;99.90;;;;;;5110621;28;20203;-78
2023/12/31 00:06:04;;;;;;;11.00;1.92;;;22.30;99.90;;;;;;5124473;28;20194;-78
2023/12/31 00:08:34;;;;;;;8.30;2.22;;;22.40;99.90;;;;;;5130845;27;20202;-78
2023/12/31 00:11:07;;;;;;;6.97;2.15;;;22.30;99.90;;;;;;5130664;27;20226;-78
2023/12/31 00:13:38;;;;;;;8.52;1.80;;;22.40;99.90;;;;;;5130842;28;20258;-78
2023/12/31 00:16:12;;;;;;;7.43;1.95;;;22.40;99.90;;;;;;5131034;28;20229;-79
2023/12/31 00:18:43;;;;;;;9.90;2.00;;;22.40;99.90;;;;;;5129645;28;20194;-79
2023/12/31 00:21:12;;;;;;;7.90;2.30;;;22.40;99.90;;;;;;5130230;28;20795;-78
2023/12/31 00:23:43;;;;;;;8.73;1.98;;;22.50;99.90;;;;;;5134486;27;20194;-78
2023/12/31 00:26:16;;;;;;;8.55;1.85;;;22.60;99.90;;;;;;5151336;27;20201;-78
2023/12/31 00:28:47;;;;;;;7.95;1.85;;;22.50;99.90;;;;;;5148279;27;20234;-78
2023/12/31 00:31:18;;;;;;;9.25;1.70;;;22.60;99.90;;;;;;5133151;27;20206;-78
2023/12/31 00:33:50;;;;;;;6.28;1.80;;;22.60;99.90;;;;;;5133428;27;20651;-79
2023/12/31 00:36:21;;;;;;;7.05;2.20;;;22.70;99.90;;;;;;5132755;27;20186;-78
2023/12/31 00:38:52;;;;;;;10.82;2.03;;;22.70;99.90;;;;;;5128943;27;20294;-78
2023/12/31 00:41:26;;;;;;;7.05;2.00;;;22.80;99.90;;;;;;5118330;27;20198;-78
2023/12/31 00:43:57;;;;;;;9.30;2.10;;;22.90;99.90;;;;;;5122432;27;20688;-77
2023/12/31 00:46:28;;;;;;;6.45;1.75;;;22.90;99.90;;;;;;5129355;27;20224;-79
2023/12/31 00:48:58;;;;;;;5.03;1.50;;;22.90;99.90;;;;;;5143373;27;20667;-79
2023/12/31 00:51:32;;;;;;;9.95;1.60;;;22.90;99.90;;;;;;5134325;27;20207;-79
2023/12/31 00:54:02;;;;;;;8.85;1.73;;;23.00;99.90;;;;;;5118061;27;20194;-78
2023/12/31 00:56:35;;;;;;;6.88;2.20;;;23.00;99.90;;;;;;5117979;27;20192;-78
2023/12/31 00:59:06;;;;;;;9.65;2.30;;;23.00;99.90;;;;;;5116057;27;20190;-78
2023/12/31 01:01:37;;;;;;;6.90;1.90;;;23.10;99.90;;;;;;5128170;27;20514;-78
2023/12/31 01:04:08;;;;;;;9.45;1.98;;;23.00;99.90;;;;;;5123117;27;20260;-77
2023/12/31 01:06:39;;;;;;;9.75;1.85;;;23.00;99.90;;;;;;5133667;27;20232;-77
2023/12/31 01:09:11;;;;;;;10.45;2.50;;;22.90;99.90;;;;;;5115613;27;20217;-78
2023/12/31 01:11:43;;;;;;;10.65;2.28;;;22.80;99.90;;;;;;5127962;27;20282;-77
2023/12/31 01:14:14;;;;;;;8.48;2.05;;;22.80;99.90;;;;;;5133295;27;20219;-77
2023/12/31 01:16:45;;;;;;;9.98;2.25;;;22.70;99.90;;;;;;5141256;27;20190;-79
2023/12/31 01:19:16;;;;;;;9.32;2.25;;;22.60;99.90;;;;;;5132168;27;20200;-78
2023/12/31 01:21:48;;;;;;;10.25;1.90;;;22.60;99.90;;;;;;5138685;27;20214;-77
2023/12/31 01:24:18;;;;;;;6.45;1.92;;;22.60;99.90;;;;;;5124277;27;20190;-77
2023/12/31 01:26:51;;;;;;;7.47;1.90;;;22.60;99.90;;;;;;5129155;27;21231;-77
2023/12/31 01:29:22;;;;;;;8.05;2.00;;;22.60;99.90;;;;;;5129585;27;20191;-79
2023/12/31 01:31:53;;;;;;;6.75;2.00;;;22.50;99.90;;;;;;5126440;27;20549;-78
2023/12/31 01:34:24;;;;;;;6.15;2.08;;;22.50;99.90;;;;;;5126462;27;20194;-78
2023/12/31 01:36:54;;;;;;;8.70;2.03;;;22.50;99.90;;;;;;5131564;27;20197;-78
2023/12/31 01:39:25;;;;;;;9.15;2.17;;;22.50;99.90;;;;;;5126489;27;20200;-78
2023/12/31 01:41:58;;;;;;;10.02;2.13;;;22.50;99.90;;;;;;5131727;27;20313;-78
2023/12/31 01:44:30;;;;;;;10.25;2.42;;;22.50;99.90;;;;;;5132693;27;20194;-78
2023/12/31 01:47:00;;;;;;;6.70;1.92;;;22.50;99.90;;;;;;5129147;27;20563;-79
2023/12/31 01:49:31;;;;;;;10.95;2.22;;;22.50;99.90;;;;;;5122698;27;20216;-78
2023/12/31 01:52:03;;;;;;;8.73;2.25;;;22.40;99.90;;;;;;5131366;27;20575;-78
2023/12/31 01:54:34;;;;;;;8.25;2.10;;;22.50;99.90;;;;;;5129851;27;20709;-77
2023/12/31 01:57:08;;;;;;;6.32;1.70;;;22.50;99.90;;;;;;5131892;27;20644;-78
2023/12/31 01:59:39;;;;;;;6.15;1.90;;;22.50;99.90;;;;;;5132288;27;20208;-77
2023/12/31 02:02:10;;;;;;;5.80;2.05;;;22.50;99.90;;;;;;5134270;27;20225;-77
2023/12/31 02:04:44;;;;;;;8.32;1.75;;;22.60;99.90;;;;;;5142780;27;20197;-76
2023/12/31 02:07:14;;;;;;;11.15;2.20;;;22.60;99.90;;;;;;5125480;27;20201;-77
2023/12/31 02:09:45;;;;;;;8.63;2.10;;;22.60;99.90;;;;;;5128497;27;20237;-76
2023/12/31 02:12:18;;;;;;;6.80;2.00;;;22.50;99.90;;;;;;5127201;27;20277;-76
2023/12/31 02:14:49;;;;;;;7.78;1.80;;;22.60;99.90;;;;;;5119886;27;20214;-76
2023/12/31 02:17:20;;;;;;;6.80;1.73;;;22.60;99.90;;;;;;5127569;27;20194;-76
2023/12/31 02:19:51;;;;;;;6.57;1.92;;;22.60;99.90;;;;;;5115522;27;20190;-77
2023/12/31 02:22:22;;;;;;;7.47;1.60;;;22.60;99.90;;;;;;5126441;27;20297;-77
2023/12/31 02:24:54;;;;;;;5.00;1.70;;;22.60;99.90;;;;;;5123152;27;20201;-78
2023/12/31 02:27:27;;;;;;;10.20;2.53;;;22.70;99.90;;;;;;5142779;27;20241;-77
2023/12/31 02:30:02;;;;;;;7.40;2.40;;;22.70;99.90;;;;;;5127132;27;20197;-78
2023/12/31 02:32:33;;;;;;;8.25;2.00;;;22.60;99.90;;;;;;5137771;27;20194;-76
2023/12/31 02:35:04;;;;;;;7.20;2.10;;;22.70;99.90;;;;;;5131628;27;20272;-76
2023/12/31 02:37:34;;;;;;;6.88;1.80;;;22.60;99.90;;;;;;5131060;27;20293;-77
2023/12/31 02:40:05;;;;;;;6.95;1.85;;;22.60;99.90;;;;;;5146538;27;20189;-77
2023/12/31 02:42:38;;;;;;;6.25;1.63;;;22.70;99.90;;;;;;5145177;27;20213;-77
2023/12/31 02:45:09;;;;;;;11.40;2.30;;;22.70;99.90;;;;;;5134017;27;20227;-77
2023/12/31 02:47:40;;;;;;;6.05;1.77;;;22.80;99.90;;;;;;5129679;27;20193;-77
2023/12/31 02:50:12;;;;;;;9.00;2.30;;;22.80;99.90;;;;;;5126900;27;20197;-78
2023/12/31 02:52:42;;;;;;;8.15;2.20;;;22.90;99.90;;;;;;5130718;27;20194;-78
2023/12/31 02:55:14;;;;;;;12.20;2.35;;;22.80;99.90;;;;;;5132389;27;20197;-78
2023/12/31 02:57:47;;;;;;;7.72;1.83;;;22.80;99.90;;;;;;5152603;27;20280;-77
2023/12/31 03:00:18;;;;;;;9.10;2.20;;;22.80;99.90;;;;;;5149794;27;20201;-78
2023/12/31 03:02:49;;;;;;;10.00;1.83;;;22.70;99.90;;;;;;5138099;27;20710;-78
2023/12/31 03:05:20;;;;;;;13.25;2.33;;;22.70;99.90;;;;;;5136030;27;20193;-79
2023/12/31 03:07:50;;;;;;;7.80;1.90;;;22.60;99.90;;;;;;5128041;27;20218;-79
2023/12/31 03:10:21;;;;;;;10.00;2.15;;;22.60;99.90;;;;;;5139664;27;20213;-79
2023/12/31 03:12:54;;;;;;;8.02;2.13;;;22.60;99.90;;;;;;5131676;27;20227;-83
2023/12/31 03:15:25;;;;;;;6.88;2.15;;;22.60;99.90;;;;;;5138188;27;20280;-80
2023/12/31 03:17:56;;;;;;;7.72;2.15;;;22.60;99.90;;;;;;5139406;27;20178;-78
2023/12/31 03:20:26;;;;;;;7.28;1.85;;;22.60;99.90;;;;;;5131458;27;20648;-79
2023/12/31 03:22:57;;;;;;;6.47;1.60;;;22.60;99.90;;;;;;5124183;27;20244;-80
2023/12/31 03:25:28;;;;;;;6.88;1.85;;;22.60;99.90;;;;;;5121006;27;20204;-78
2023/12/31 03:28:00;;;;;;;7.88;1.88;;;22.60;99.90;;;;;;5116801;27;20204;-79
2023/12/31 03:30:31;;;;;;;7.68;2.00;;;22.60;99.90;;;;;;5133746;27;20214;-77
2023/12/31 03:33:03;;;;;;;9.82;1.90;;;22.60;99.90;;;;;;5131159;28;20194;-77
2023/12/31 03:35:34;;;;;;;7.00;1.92;;;22.60;99.90;;;;;;5134711;27;20185;-79
2023/12/31 03:38:05;;;;;;;7.75;2.10;;;22.70;99.90;;;;;;5121581;28;20217;-78
2023/12/31 03:40:36;;;;;;;8.10;2.22;;;22.60;99.90;;;;;;5125146;28;20230;-78
2023/12/31 03:43:08;;;;;;;6.25;1.80;;;22.60;99.90;;;;;;5128850;28;20695;-78
2023/12/31 03:45:39;;;;;;;7.68;1.92;;;22.70;99.90;;;;;;5120502;27;20596;-78
2023/12/31 03:48:10;;;;;;;12.93;2.10;;;22.70;99.90;;;;;;5124956;28;20293;-78
2023/12/31 03:50:41;;;;;;;7.05;1.65;;;22.60;99.90;;;;;;5129459;27;20200;-77
2023/12/31 03:53:12;;;;;;;5.35;1.83;;;22.60;99.90;;;;;;5129968;27;20216;-78
2023/12/31 03:55:43;;;;;;;9.27;2.28;;;22.50;99.90;;;;;;5130668;27;20202;-79
2023/12/31 03:58:16;;;;;;;8.65;1.60;;;22.60;99.90;;;;;;5130181;28;20198;-78
2023/12/31 04:00:48;;;;;;;7.15;1.98;;;22.50;99.90;;;;;;5130982;27;20590;-78
2023/12/31 04:03:18;;;;;;;8.32;1.77;;;22.50;99.90;;;;;;5129375;27;20227;-78
2023/12/31 04:05:49;;;;;;;8.48;1.80;;;22.50;99.90;;;;;;5131191;27;20216;-78
2023/12/31 04:08:20;;;;;;;10.77;2.03;;;22.50;99.90;;;;;;5135460;27;20190;-78
2023/12/31 04:10:51;;;;;;;8.75;1.88;;;22.50;99.90;;;;;;5120296;27;20229;-78
2023/12/31 04:13:25;;;;;;;14.27;2.58;;;22.50;99.90;;;;;;5132865;27;20695;-78
2023/12/31 04:15:56;;;;;;;9.48;2.15;;;22.50;99.90;;;;;;5124851;27;20189;-78
2023/12/31 04:18:27;;;;;;;8.15;1.73;;;22.50;99.90;;;;;;5128440;27;20209;-80
2023/12/31 04:20:57;;;;;;;11.20;1.88;;;22.50;99.90;;;;;;5138969;27;20200;-79
2023/12/31 04:23:28;;;;;;;9.38;1.70;;;22.50;99.90;;;;;;5136180;27;20226;-78
2023/12/31 04:25:59;;;;;;;8.13;2.03;;;22.50;99.90;;;;;;5138743;27;20241;-78
2023/12/31 04:28:32;;;;;;;8.63;2.13;;;22.60;99.90;;;;;;5126769;27;20588;-78
2023/12/31 04:31:04;;;;;;;17.10;2.40;;;22.60;99.90;;;;;;5118005;27;20305;-78
2023/12/31 04:33:35;;;;;;;7.20;2.13;;;22.70;99.90;;;;;;5128482;27;20221;-79
2023/12/31 04:36:07;;;;;;;9.20;2.28;;;22.70;99.90;;;;;;5136720;27;20224;-78
2023/12/31 04:38:38;;;;;;;8.65;2.10;;;22.70;99.90;;;;;;5135408;27;20570;-78
2023/12/31 04:41:09;;;;;;;9.75;2.33;;;22.70;99.90;;;;;;5130279;27;20210;-77
2023/12/31 04:43:41;;;;;;;7.03;2.17;;;22.70;99.90;;;;;;5130418;27;20237;-76
2023/12/31 04:46:12;;;;;;;13.55;2.50;;;22.80;99.90;;;;;;5130526;27;20224;-79
2023/12/31 04:48:43;;;;;;;7.53;2.10;;;22.90;99.90;;;;;;5134189;27;20205;-79
2023/12/31 04:51:13;;;;;;;7.93;2.30;;;22.90;99.90;;;;;;5129474;27;20286;-78
2023/12/31 04:53:44;;;;;;;12.60;1.85;;;22.90;99.90;;;;;;5136486;27;20224;-78
2023/12/31 04:56:22;;;;;;;9.13;2.30;;;22.90;99.90;;;;;;5132099;27;20715;-78
2023/12/31 04:58:56;;;;;;;9.32;2.33;;;22.90;99.90;;;;;;5121977;27;20224;-77
2023/12/31 05:01:32;;;;;;;12.55;3.35;;;22.90;99.90;;;;;;5130746;27;20222;-78
2023/12/31 05:04:03;;;;;;;22.02;7.35;;;22.90;99.90;;;;;;5122063;27;20275;-77
2023/12/31 05:06:34;;;;;;;9.15;2.53;;;22.80;99.90;;;;;;5127197;27;20285;-77
2023/12/31 05:09:08;;;;;;;9.55;2.35;;;22.80;99.90;;;;;;5129240;27;20627;-77
2023/12/31 05:11:38;;;;;;;7.18;2.25;;;22.80;99.90;;;;;;5126620;27;20222;-77
2023/12/31 05:14:11;;;;;;;8.20;2.20;;;22.80;99.90;;;;;;5128720;27;20204;-79
2023/12/31 05:16:42;;;;;;;6.20;2.25;;;22.90;99.90;;;;;;5111644;28;20224;-78
2023/12/31 05:19:13;;;;;;;9.63;2.58;;;22.90;99.90;;;;;;5113935;27;20194;-78
2023/12/31 05:21:43;;;;;;;8.30;2.78;;;23.00;99.90;;;;;;5113120;28;20206;-77
2023/12/31 05:24:14;;;;;;;7.25;3.10;;;23.00;99.90;;;;;;5115055;27;20230;-78
2023/12/31 05:26:45;;;;;;;7.88;2.47;;;23.00;99.90;;;;;;5135916;27;20196;-77
2023/12/31 05:29:18;;;;;;;7.07;2.53;;;23.10;99.90;;;;;;5128715;27;20269;-77
2023/12/31 05:31:48;;;;;;;10.98;2.65;;;23.10;99.90;;;;;;5112171;27;20742;-78
2023/12/31 05:34:19;;;;;;;8.68;3.50;;;23.10;99.90;;;;;;5118523;27;20186;-78
2023/12/31 05:36:50;;;;;;;8.27;3.53;;;23.00;99.90;;;;;;5126435;27;20210;-78
2023/12/31 05:39:21;;;;;;;11.90;3.55;;;23.00;99.90;;;;;;5132253;27;20194;-77
2023/12/31 05:41:52;;;;;;;11.60;2.47;;;23.00;99.90;;;;;;5122519;27;20218;-78
2023/12/31 05:45:05;;;;;;;12.90;2.67;;;23.00;99.90;;;;;;5124377;27;20701;-78
2023/12/31 05:47:38;;;;;;;8.82;2.05;;;23.00;99.90;;;;;;5111883;27;20209;-78
2023/12/31 05:50:09;;;;;;;11.10;2.08;;;23.00;99.90;;;;;;5122110;27;20190;-77
2023/12/31 05:52:40;;;;;;;8.70;2.40;;;22.90;99.90;;;;;;5125717;27;20297;-76
2023/12/31 05:55:11;;;;;;;8.73;2.72;;;22.90;99.90;;;;;;5120933;27;20639;-76
2023/12/31 05:57:43;;;;;;;6.45;2.50;;;22.90;99.90;;;;;;5123820;27;20649;-77
2023/12/31 06:00:14;;;;;;;7.65;2.10;;;23.00;99.90;;;;;;5132255;27;20194;-78
2023/12/31 06:02:49;;;;;;;7.35;2.13;;;22.90;99.90;;;;;;5131308;27;20643;-77
2023/12/31 06:05:20;;;;;;;7.15;1.95;;;22.90;99.90;;;;;;5131815;27;20193;-78
2023/12/31 06:07:51;;;;;;;6.20;1.92;;;22.90;99.90;;;;;;5118046;27;20222;-78
2023/12/31 06:10:22;;;;;;;7.22;2.22;;;22.90;99.90;;;;;;5131910;27;20222;-79
2023/12/31 06:12:54;;;;;;;8.27;2.17;;;22.90;99.90;;;;;;5121072;27;20703;-79
2023/12/31 06:15:24;;;;;;;6.28;1.90;;;22.90;99.90;;;;;;5125447;27;20253;-79
2023/12/31 06:17:57;;;;;;;7.15;2.03;;;22.90;99.90;;;;;;5124839;27;20198;-79
2023/12/31 06:20:28;;;;;;;6.95;2.17;;;22.90;99.90;;;;;;5132247;27;20198;-79
2023/12/31 06:22:59;;;;;;;7.80;3.25;;;22.80;99.90;;;;;;5130606;27;20744;-79
2023/12/31 06:25:30;;;;;;;6.88;2.97;;;22.90;99.90;;;;;;5115769;27;20193;-79
2023/12/31 06:28:00;;;;;;;6.80;2.22;;;22.90;99.90;;;;;;5111808;27;20205;-78
2023/12/31 06:30:31;;;;;;;10.80;2.70;;;22.90;99.90;;;;;;5111786;27;20766;-78
2023/12/31 06:33:04;;;;;;;7.07;1.80;;;23.00;99.90;;;;;;5116471;27;20698;-78
2023/12/31 06:35:35;;;;;;;7.40;2.35;;;23.00;99.90;;;;;;5116538;27;20187;-78
2023/12/31 06:38:06;;;;;;;6.50;2.15;;;23.00;99.90;;;;;;5122486;27;20215;-77
2023/12/31 06:40:37;;;;;;;6.68;1.90;;;22.90;99.90;;;;;;5125128;27;20222;-77
2023/12/31 06:43:08;;;;;;;8.27;2.53;;;23.00;99.90;;;;;;5118380;27;20214;-78
2023/12/31 06:45:40;;;;;;;9.32;1.90;;;23.00;99.90;;;;;;5132702;27;20214;-78
2023/12/31 06:48:12;;;;;;;6.65;2.33;;;23.00;99.90;;;;;;5126947;27;20762;-79
2023/12/31 06:50:44;;;;;;;7.85;2.40;;;23.00;99.90;;;;;;5125487;27;20221;-77
2023/12/31 06:53:15;;;;;;;7.75;2.55;;;23.00;99.90;;;;;;5113849;28;20195;-77
2023/12/31 06:55:46;;;;;;;5.43;1.85;;;23.00;99.90;;;;;;5134553;27;20317;-77
2023/12/31 06:58:17;;;;;;;9.75;2.33;;;23.00;99.90;;;;;;5117276;27;20209;-77
2023/12/31 07:00:48;;;;;;;6.32;2.42;;;23.00;99.90;;;;;;5124287;27;20194;-76
2023/12/31 07:03:20;;;;;;;8.43;2.53;;;23.00;99.90;;;;;;5131169;27;20225;-77
2023/12/31 07:05:51;;;;;;;8.52;2.60;;;23.00;99.90;;;;;;5115214;27;20202;-79
2023/12/31 07:08:25;;;;;;;7.32;2.45;;;23.00;99.90;;;;;;5122170;27;20221;-78
2023/12/31 07:10:56;;;;;;;5.28;1.88;;;22.90;99.90;;;;;;5123425;27;20240;-78
2023/12/31 07:13:26;;;;;;;6.75;2.00;;;22.90;99.90;;;;;;5122332;27;20638;-77
2023/12/31 07:16:01;;;;;;;8.35;1.95;;;22.90;99.90;;;;;;5127751;27;20189;-78
2023/12/31 07:18:35;;;;;;;5.10;1.75;;;22.90;99.90;;;;;;5131704;27;20575;-78
2023/12/31 07:21:14;;;;;;;8.23;2.58;;;22.70;99.90;;;;;;5130021;27;20205;-78
2023/12/31 07:23:45;;;;;;;6.45;2.10;;;22.80;99.90;;;;;;5128864;27;20320;-78
2023/12/31 07:26:25;;;;;;;7.97;2.03;;;22.70;99.90;;;;;;5125842;27;20197;-78
2023/12/31 07:28:56;;;;;;;5.85;2.00;;;22.70;99.90;;;;;;5114424;27;20205;-78
2023/12/31 07:31:27;;;;;;;6.10;1.70;;;22.70;99.90;;;;;;5137792;27;20246;-78
2023/12/31 07:34:00;;;;;;;5.65;1.88;;;22.80;99.90;;;;;;5127076;28;20198;-78
2023/12/31 07:36:30;;;;;;;8.10;2.08;;;22.70;99.90;;;;;;5125608;28;20644;-78
2023/12/31 07:39:10;;;;;;;7.57;1.98;;;22.70;99.90;;;;;;5131214;27;20799;-78
2023/12/31 07:41:41;;;;;;;5.68;1.98;;;22.80;99.90;;;;;;5129463;27;20197;-77
2023/12/31 07:44:12;;;;;;;6.93;2.05;;;22.70;99.90;;;;;;5129856;27;20699;-77
2023/12/31 07:46:43;;;;;;;9.45;2.10;;;22.70;99.90;;;;;;5133914;27;20229;-78
2023/12/31 07:49:15;;;;;;;7.40;1.90;;;22.70;99.90;;;;;;5134928;27;20554;-78
2023/12/31 07:51:46;;;;;;;8.38;2.22;;;22.70;99.90;;;;;;5134965;27;20560;-77
2023/12/31 07:54:17;;;;;;;6.35;1.90;;;22.70;99.90;;;;;;5132926;27;20304;-77
2023/12/31 07:56:48;;;;;;;6.43;2.22;;;22.70;99.90;;;;;;5132008;27;21121;-77
2023/12/31 07:59:18;;;;;;;7.40;2.60;;;22.70;99.90;;;;;;5133273;27;20282;-77
2023/12/31 08:01:49;;;;;;;5.28;1.92;;;22.70;99.90;;;;;;5134053;27;20332;-78
2023/12/31 08:04:26;;;;;;;6.32;2.15;;;22.70;99.90;;;;;;5131055;27;20225;-78
2023/12/31 08:06:57;;;;;;;6.00;2.03;;;22.70;99.90;;;;;;5135698;27;20217;-78
2023/12/31 08:09:28;;;;;;;8.13;2.50;;;22.70;99.90;;;;;;5133557;27;20198;-78
2023/12/31 08:11:59;;;;;;;8.02;2.70;;;22.70;99.90;;;;;;5138861;27;20198;-78
2023/12/31 08:14:30;;;;;;;9.88;3.30;;;22.70;99.90;;;;;;5129487;27;20190;-77
2023/12/31 08:17:01;;;;;;;8.85;3.50;;;22.70;99.90;;;;;;5133125;27;20290;-77
2023/12/31 08:19:33;;;;;;;8.65;3.63;;;22.70;99.90;;;;;;5132774;27;20194;-78
2023/12/31 08:22:04;;;;;;;8.38;3.05;;;22.70;99.90;;;;;;5131370;27;20200;-78
2023/12/31 08:24:35;;;;;;;9.48;2.60;;;22.70;99.90;;;;;;5132709;27;20230;-78
2023/12/31 08:27:06;;;;;;;7.85;2.58;;;22.70;99.90;;;;;;5132485;27;20208;-78
2023/12/31 08:29:37;;;;;;;8.85;3.45;;;22.70;99.90;;;;;;5126772;27;20202;-78
2023/12/31 08:32:08;;;;;;;11.57;2.50;;;22.60;99.90;;;;;;5117910;27;20194;-78
2023/12/31 08:34:40;;;;;;;4.57;1.60;;;22.60;99.90;;;;;;5134287;27;20216;-78
2023/12/31 08:37:11;;;;;;;6.80;1.80;;;22.50;99.90;;;;;;5134684;27;20206;-78
2023/12/31 08:39:42;;;;;;;8.55;2.10;;;22.50;99.90;;;;;;5126758;27;20194;-78
2023/12/31 08:42:13;;;;;;;4.95;1.90;;;22.40;99.90;;;;;;5122227;27;20202;-78
2023/12/31 08:44:46;;;;;;;5.50;1.95;;;22.40;99.90;;;;;;5127421;27;20700;-78
2023/12/31 08:47:20;;;;;;;6.90;1.50;;;22.30;99.90;;;;;;5129043;27;20632;-78
2023/12/31 08:49:53;;;;;;;4.43;1.17;;;22.20;99.90;;;;;;5134958;27;20251;-78
2023/12/31 08:52:24;;;;;;;5.88;1.52;;;22.20;99.90;;;;;;5130032;27;20194;-78
2023/12/31 08:54:54;;;;;;;3.85;1.40;;;22.20;99.90;;;;;;5125594;27;20682;-78
2023/12/31 08:57:25;;;;;;;5.53;1.50;;;22.20;99.90;;;;;;5144761;27;20196;-78
2023/12/31 08:59:56;;;;;;;3.92;1.48;;;22.20;99.90;;;;;;5136935;27;20189;-78
2023/12/31 09:02:27;;;;;;;5.30;1.67;;;22.20;99.90;;;;;;5124808;27;20239;-78
2023/12/31 09:04:59;;;;;;;6.80;2.05;;;22.30;99.90;;;;;;5133495;27;20310;-78
2023/12/31 09:07:31;;;;;;;5.88;1.60;;;22.30;99.90;;;;;;5132148;27;20222;-78
2023/12/31 09:10:02;;;;;;;4.68;1.65;;;22.30;99.90;;;;;;5131426;27;20234;-78
2023/12/31 09:12:33;;;;;;;5.25;1.40;;;22.30;99.90;;;;;;5133690;27;20624;-77
2023/12/31 09:15:06;;;;;;;4.15;1.30;;;22.20;99.90;;;;;;5132221;27;20194;-77
2023/12/31 09:17:37;;;;;;;7.43;1.38;;;22.20;99.90;;;;;;5127101;27;20732;-77
2023/12/31 09:20:10;;;;;;;4.85;1.65;;;22.20;99.90;;;;;;5130102;27;20190;-77
2023/12/31 09:22:41;;;;;;;3.45;1.30;;;22.20;99.90;;;;;;5129883;27;20186;-77
2023/12/31 09:25:12;;;;;;;3.83;1.80;;;22.20;99.90;;;;;;5130716;27;20853;-77
2023/12/31 09:27:43;;;;;;;5.78;1.48;;;22.30;99.90;;;;;;5135225;27;20243;-77
2023/12/31 09:30:14;;;;;;;4.57;1.40;;;22.30;99.90;;;;;;5131263;27;20198;-77
2023/12/31 09:32:49;;;;;;;2.63;0.95;;;22.30;99.90;;;;;;5128171;27;20210;-78
2023/12/31 09:35:22;;;;;;;5.47;0.90;;;22.30;99.90;;;;;;5132328;27;20728;-76
2023/12/31 09:37:55;;;;;;;4.82;1.42;;;22.30;99.90;;;;;;5128393;27;20194;-77
2023/12/31 09:40:29;;;;;;;5.68;1.67;;;22.30;99.90;;;;;;5139731;27;20190;-78
2023/12/31 09:43:04;;;;;;;4.07;1.67;;;22.40;99.90;;;;;;5131770;27;20226;-78
2023/12/31 09:45:36;;;;;;;4.65;1.40;;;22.40;99.90;;;;;;5145568;27;20219;-78
2023/12/31 09:48:08;;;;;;;5.60;1.38;;;22.40;99.90;;;;;;5117690;27;20640;-78
2023/12/31 09:50:51;;;;;;;4.13;1.40;;;22.40;99.90;;;;;;5132753;27;20289;-78
2023/12/31 09:53:24;;;;;;;6.30;1.50;;;22.40;99.90;;;;;;5129157;27;20204;-77
2023/12/31 09:56:03;;;;;;;5.88;1.55;;;22.40;99.90;;;;;;5129096;27;20190;-78
2023/12/31 09:58:36;;;;;;;6.97;1.58;;;22.40;99.90;;;;;;5144906;27;20205;-78
2023/12/31 10:01:12;;;;;;;4.85;1.52;;;22.40;99.90;;;;;;5128485;27;20217;-78
2023/12/31 10:04:02;;;;;;;4.95;1.98;;;22.50;99.90;;;;;;5122801;27;20194;-78
2023/12/31 10:06:44;;;;;;;4.28;1.65;;;22.50;99.90;;;;;;5113163;27;20202;-78
2023/12/31 10:09:23;;;;;;;4.10;1.67;;;22.50;99.90;;;;;;5113774;27;20281;-77
2023/12/31 10:12:12;;;;;;;5.32;1.40;;;22.40;99.90;;;;;;5101443;27;20198;-78
2023/12/31 10:14:48;;;;;;;3.95;1.20;;;22.40;99.90;;;;;;5129995;27;20198;-78
2023/12/31 10:17:30;;;;;;;5.75;1.42;;;22.40;99.90;;;;;;5118713;27;20201;-78
2023/12/31 10:20:05;;;;;;;5.78;1.63;;;22.30;99.90;;;;;;5118490;27;20194;-77
2023/12/31 10:23:01;;;;;;;8.93;6.22;;;22.30;99.90;;;;;;5117846;27;20659;-77
2023/12/31 10:25:50;;;;;;;22.30;16.70;;;22.30;99.90;;;;;;5109481;27;20318;-78
2023/12/31 10:28:31;;;;;;;23.27;17.58;;;22.30;99.90;;;;;;5127511;27;20281;-78
2023/12/31 10:31:06;;;;;;;25.48;19.45;;;22.30;99.90;;;;;;5121025;27;20247;-77
2023/12/31 10:34:13;;;;;;;30.95;21.67;;;22.30;99.90;;;;;;5115851;27;20621;-77
2023/12/31 10:37:16;;;;;;;32.25;21.58;;;22.30;99.90;;;;;;5113626;27;20657;-77
2023/12/31 10:40:30;;;;;;;20.60;15.00;;;22.30;99.90;;;;;;5115711;27;20280;-77
2023/12/31 10:43:32;;;;;;;21.08;12.65;;;22.30;99.90;;;;;;5102190;28;20273;-75
2023/12/31 10:46:10;;;;;;;14.20;6.65;;;22.30;99.90;;;;;;5110982;27;20725;-76
2023/12/31 10:48:50;;;;;;;8.68;4.60;;;22.20;99.90;;;;;;5132804;27;20250;-77
2023/12/31 10:51:31;;;;;;;6.30;3.17;;;22.20;99.90;;;;;;5119077;27;20569;-78
2023/12/31 10:54:06;;;;;;;7.68;3.83;;;22.20;99.90;;;;;;5108768;28;20215;-77
2023/12/31 10:56:40;;;;;;;19.75;11.43;;;22.20;99.90;;;;;;5124116;27;20659;-78
2023/12/31 10:59:22;;;;;;;27.40;22.92;;;22.20;99.90;;;;;;5109044;27;20198;-78
2023/12/31 11:01:57;;;;;;;16.85;11.90;;;22.10;99.90;;;;;;5111612;27;20250;-77
2023/12/31 11:04:34;;;;;;;8.65;3.00;;;22.10;99.90;;;;;;5131333;27;20204;-76
2023/12/31 11:07:06;;;;;;;9.20;3.13;;;22.10;99.90;;;;;;5127539;27;20206;-78
2023/12/31 11:09:38;;;;;;;14.43;4.47;;;22.10;99.90;;;;;;5116556;27;20223;-78
2023/12/31 11:12:11;;;;;;;7.78;3.10;;;22.10;99.90;;;;;;5131011;27;20194;-78
2023/12/31 11:14:46;;;;;;;10.88;3.55;;;22.10;99.90;;;;;;5129276;27;20648;-78
2023/12/31 11:17:43;;;;;;;7.85;2.92;;;22.10;99.90;;;;;;5130738;27;20211;-78
2023/12/31 11:20:33;;;;;;;4.88;3.03;;;22.10;99.90;;;;;;5111160;27;20190;-76
2023/12/31 11:23:11;;;;;;;8.20;3.60;;;22.00;99.90;;;;;;5127617;27;20664;-77
2023/12/31 11:25:42;;;;;;;7.85;3.63;;;22.10;99.90;;;;;;5123715;27;20634;-76
2023/12/31 11:28:14;;;;;;;8.80;4.38;;;22.10;99.90;;;;;;5126225;27;20221;-76
2023/12/31 11:30:55;;;;;;;10.10;5.55;;;22.10;99.90;;;;;;5116151;28;20186;-77
2023/12/31 11:33:28;;;;;;;12.43;6.85;;;22.10;99.90;;;;;;5128943;27;20298;-77
2023/12/31 11:36:04;;;;;;;10.70;7.10;;;22.10;99.90;;;;;;5126854;28;20250;-77
2023/12/31 11:38:56;;;;;;;15.25;7.10;;;22.10;99.90;;;;;;5127220;28;20197;-76
2023/12/31 11:41:28;;;;;;;13.35;6.60;;;22.10;99.90;;;;;;5128333;28;20216;-77
2023/12/31 11:44:01;;;;;;;12.55;7.80;;;22.00;99.90;;;;;;5130093;28;20289;-76
2023/12/31 11:46:39;;;;;;;10.63;7.15;;;22.00;99.90;;;;;;5130866;28;20309;-76
2023/12/31 11:49:12;;;;;;;13.70;7.90;;;22.00;99.90;;;;;;5128760;28;20197;-77
2023/12/31 11:51:56;;;;;;;11.38;6.75;;;21.90;99.90;;;;;;5127296;28;20229;-77
2023/12/31 11:54:37;;;;;;;11.95;6.80;;;21.90;99.90;;;;;;5115394;28;20270;-77
2023/12/31 11:57:10;;;;;;;10.63;6.72;;;21.90;99.90;;;;;;5133213;28;20198;-77
2023/12/31 11:59:45;;;;;;;9.85;6.72;;;22.00;99.90;;;;;;5106048;28;20518;-77
2023/12/31 12:02:17;;;;;;;10.25;6.55;;;21.90;99.90;;;;;;5118526;28;20196;-76
2023/12/31 12:04:48;;;;;;;9.95;6.28;;;22.00;99.90;;;;;;5112165;28;20280;-78
2023/12/31 12:07:19;;;;;;;9.30;5.75;;;22.00;99.90;;;;;;5128849;28;20190;-77
2023/12/31 12:09:50;;;;;;;7.93;5.38;;;22.00;99.90;;;;;;5152591;27;20229;-77
2023/12/31 12:12:22;;;;;;;8.05;4.57;;;22.00;99.90;;;;;;5140706;27;20205;-77
2023/12/31 12:14:55;;;;;;;11.10;3.00;;;22.00;99.90;;;;;;5131073;28;20620;-77
2023/12/31 12:17:31;;;;;;;6.13;2.45;;;22.10;99.90;;;;;;5124729;28;20196;-77
2023/12/31 12:20:02;;;;;;;5.05;2.08;;;22.00;99.90;;;;;;5130085;27;20220;-77
2023/12/31 12:22:38;;;;;;;7.70;1.98;;;22.10;99.90;;;;;;5125350;28;20270;-77
2023/12/31 12:25:09;;;;;;;7.00;1.75;;;22.10;99.90;;;;;;5128896;28;20194;-77
2023/12/31 12:27:40;;;;;;;3.88;1.40;;;22.00;99.90;;;;;;5130956;28;20696;-77
2023/12/31 12:30:16;;;;;;;4.20;1.60;;;22.10;99.90;;;;;;5130464;28;20194;-77
2023/12/31 12:32:49;;;;;;;5.20;1.52;;;22.10;99.90;;;;;;5125360;28;20193;-78
2023/12/31 12:35:21;;;;;;;4.40;1.30;;;22.10;99.90;;;;;;5132487;28;20232;-78
2023/12/31 12:37:51;;;;;;;3.47;1.17;;;22.10;99.90;;;;;;5130133;27;20201;-78
2023/12/31 12:40:22;;;;;;;4.53;1.23;;;22.20;99.90;;;;;;5126835;28;20228;-78
2023/12/31 12:42:55;;;;;;;4.55;1.75;;;22.20;99.90;;;;;;5125492;28;20595;-77
2023/12/31 12:45:28;;;;;;;3.78;1.10;;;22.30;99.90;;;;;;5132907;28;20247;-78
2023/12/31 12:48:01;;;;;;;5.18;1.45;;;22.30;99.90;;;;;;5133518;28;20326;-78
2023/12/31 12:50:32;;;;;;;4.70;1.50;;;22.30;99.90;;;;;;5133006;28;20237;-78
2023/12/31 12:53:03;;;;;;;2.65;1.08;;;22.30;99.90;;;;;;5133436;28;20221;-77
2023/12/31 12:55:34;;;;;;;5.97;1.60;;;22.30;99.90;;;;;;5132199;28;20203;-78
2023/12/31 12:58:04;;;;;;;3.70;1.30;;;22.40;99.90;;;;;;5133291;28;20202;-77
2023/12/31 13:00:37;;;;;;;3.58;1.25;;;22.40;99.90;;;;;;5133028;28;20201;-77
2023/12/31 13:03:08;;;;;;;4.97;1.40;;;22.40;99.90;;;;;;5132972;28;20204;-77
2023/12/31 13:05:39;;;;;;;3.00;1.00;;;22.40;99.90;;;;;;5132714;28;20253;-76
2023/12/31 13:08:10;;;;;;;5.38;1.27;;;22.40;99.90;;;;;;5132758;28;20194;-77
2023/12/31 13:10:41;;;;;;;27.20;21.50;;;22.40;99.90;;;;;;5004235;27;3692374;-77
2023/12/31 13:13:12;;;;;;;51.55;45.75;;;22.40;99.90;;;;;;5137058;27;20190;-77
2023/12/31 13:15:45;;;;;;;62.90;53.28;;;22.40;99.90;;;;;;5133313;27;20197;-77